Time;durP1;ratioP1;P1;durP2;ratioP2;P2;SDS_P1;SDS_P2;PMS_P1;PMS_P2;Temp;Humidity;BMP_temperature;BMP_pressure;BME280_temperature;BME280_humidity;BME280_pressure;Samples;Min_cycle;Max_cycle;Signal;HPM_P1;HPM_P2
2021/04/27 00:01:14;;;;;;;0.70;0.50;;;9.80;53.40;;;;;;5095046;28;20476;-64
2021/04/27 00:03:41;;;;;;;1.70;0.50;;;9.80;54.30;;;;;;5094937;28;20513;-64
2021/04/27 00:06:08;;;;;;;0.70;0.47;;;9.80;53.40;;;;;;5095161;28;20899;-64
2021/04/27 00:08:35;;;;;;;0.80;0.50;;;9.80;53.40;;;;;;5094831;28;20449;-64
2021/04/27 00:11:01;;;;;;;0.80;0.50;;;9.70;54.30;;;;;;5095422;28;20719;-64
2021/04/27 00:13:28;;;;;;;0.70;0.50;;;9.70;53.80;;;;;;5095352;28;20414;-64
2021/04/27 00:15:54;;;;;;;0.80;0.50;;;9.70;54.00;;;;;;5095261;28;20873;-63
2021/04/27 00:18:21;;;;;;;0.90;0.60;;;9.70;53.50;;;;;;5095207;28;20441;-63
2021/04/27 00:20:47;;;;;;;1.67;0.52;;;9.70;52.70;;;;;;5096541;28;20461;-63
2021/04/27 00:23:15;;;;;;;2.00;0.50;;;9.50;52.80;;;;;;5096684;28;20813;-63
2021/04/27 00:25:42;;;;;;;0.70;0.50;;;9.30;53.80;;;;;;5096711;28;20472;-64
2021/04/27 00:28:09;;;;;;;1.25;0.50;;;9.20;54.50;;;;;;5095792;28;20444;-64
2021/04/27 00:30:35;;;;;;;1.30;0.50;;;9.10;54.00;;;;;;5095925;28;20425;-64
2021/04/27 00:33:03;;;;;;;1.70;0.50;;;9.20;54.50;;;;;;5095477;28;20453;-64
2021/04/27 00:35:30;;;;;;;1.80;0.50;;;9.20;54.70;;;;;;5095232;28;20429;-64
2021/04/27 00:37:57;;;;;;;2.25;0.50;;;9.20;54.10;;;;;;5093799;28;20483;-63
2021/04/27 00:40:24;;;;;;;0.90;0.50;;;9.10;54.10;;;;;;5092716;28;20759;-64
2021/04/27 00:42:51;;;;;;;0.80;0.50;;;8.90;54.20;;;;;;5091524;28;20430;-65
2021/04/27 00:45:19;;;;;;;1.00;0.50;;;8.90;54.30;;;;;;5091780;28;20418;-64
2021/04/27 00:47:46;;;;;;;0.70;0.50;;;9.00;55.30;;;;;;5094178;28;20805;-64
2021/04/27 00:50:15;;;;;;;0.67;0.40;;;8.90;55.00;;;;;;5093543;28;20453;-63
2021/04/27 00:52:43;;;;;;;1.20;0.50;;;8.90;55.10;;;;;;5096313;28;20651;-64
2021/04/27 00:55:10;;;;;;;1.25;0.60;;;9.00;55.20;;;;;;5096115;28;20424;-63
2021/04/27 00:57:38;;;;;;;1.20;0.60;;;9.00;54.70;;;;;;5095107;28;20783;-64
2021/04/27 01:00:07;;;;;;;0.70;0.50;;;9.00;55.40;;;;;;5095469;28;20453;-63
2021/04/27 01:02:34;;;;;;;0.97;0.50;;;9.10;55.80;;;;;;5095380;28;20421;-63
2021/04/27 01:05:01;;;;;;;0.80;0.50;;;9.20;56.20;;;;;;5095855;28;20852;-63
2021/04/27 01:07:32;;;;;;;0.70;0.50;;;9.10;55.40;;;;;;5095311;28;20418;-64
2021/04/27 01:10:03;;;;;;;1.20;0.50;;;9.10;55.50;;;;;;5095645;28;20458;-64
2021/04/27 01:12:32;;;;;;;1.00;0.50;;;9.10;56.10;;;;;;5095546;28;20410;-63
2021/04/27 01:15:06;;;;;;;0.90;0.60;;;9.20;55.90;;;;;;5095791;28;20460;-64
2021/04/27 01:17:33;;;;;;;1.88;0.50;;;9.20;55.70;;;;;;5094610;28;20410;-64
2021/04/27 01:20:07;;;;;;;1.40;0.50;;;9.20;55.60;;;;;;5094120;28;20456;-64
2021/04/27 01:22:44;;;;;;;0.90;0.50;;;9.10;55.70;;;;;;5095613;28;20466;-64
2021/04/27 01:25:13;;;;;;;0.80;0.50;;;9.00;55.90;;;;;;5095320;28;20450;-64
2021/04/27 01:27:41;;;;;;;0.90;0.50;;;8.90;55.90;;;;;;5095418;28;20538;-63
2021/04/27 01:30:09;;;;;;;0.90;0.50;;;9.00;56.70;;;;;;5095166;28;20421;-64
2021/04/27 01:32:37;;;;;;;1.42;0.50;;;8.90;56.30;;;;;;5093248;28;20692;-64
2021/04/27 01:35:05;;;;;;;0.80;0.50;;;8.90;57.00;;;;;;5093839;28;20422;-64
2021/04/27 01:37:32;;;;;;;0.90;0.50;;;8.80;56.90;;;;;;5093136;28;20508;-63
2021/04/27 01:39:59;;;;;;;0.80;0.50;;;8.70;56.50;;;;;;5092730;28;20421;-64
2021/04/27 01:42:26;;;;;;;1.98;0.55;;;8.80;57.30;;;;;;5093054;28;20465;-63
2021/04/27 01:44:54;;;;;;;2.00;0.50;;;8.70;56.80;;;;;;5093094;28;20678;-63
2021/04/27 01:47:21;;;;;;;1.13;0.50;;;8.70;57.10;;;;;;5094259;28;20873;-63
2021/04/27 01:49:48;;;;;;;1.23;0.50;;;8.70;57.50;;;;;;5094337;28;20445;-63
2021/04/27 01:52:16;;;;;;;0.80;0.50;;;8.70;57.50;;;;;;5094410;28;20584;-63
2021/04/27 01:54:42;;;;;;;3.03;0.60;;;8.70;57.00;;;;;;5093444;28;20421;-63
2021/04/27 01:57:09;;;;;;;0.80;0.50;;;8.50;57.40;;;;;;5092392;28;20823;-63
2021/04/27 01:59:36;;;;;;;1.00;0.60;;;8.50;57.80;;;;;;5092880;28;20445;-63
2021/04/27 02:02:03;;;;;;;1.40;0.60;;;8.70;57.50;;;;;;5092930;28;20473;-63
2021/04/27 02:04:30;;;;;;;1.55;0.47;;;8.70;57.30;;;;;;5092886;28;20421;-63
2021/04/27 02:06:57;;;;;;;0.70;0.50;;;8.60;57.70;;;;;;5091934;28;20472;-63
2021/04/27 02:09:27;;;;;;;0.88;0.50;;;8.60;58.20;;;;;;5094003;28;20458;-63
2021/04/27 02:11:54;;;;;;;0.95;0.50;;;8.60;58.30;;;;;;5093801;28;20430;-63
2021/04/27 02:14:25;;;;;;;0.90;0.50;;;8.80;58.60;;;;;;5093682;28;20418;-63
2021/04/27 02:16:58;;;;;;;0.80;0.50;;;8.60;58.00;;;;;;5093266;28;20472;-63
2021/04/27 02:19:28;;;;;;;1.58;0.60;;;8.50;57.90;;;;;;5091569;28;20510;-63
2021/04/27 02:21:59;;;;;;;1.67;0.47;;;8.50;58.90;;;;;;5092390;28;20791;-63
2021/04/27 02:24:25;;;;;;;0.85;0.60;;;8.50;58.50;;;;;;5091888;28;20449;-63
2021/04/27 02:26:52;;;;;;;2.50;0.60;;;8.40;58.40;;;;;;5092275;28;20484;-63
2021/04/27 02:29:19;;;;;;;0.90;0.50;;;8.10;58.60;;;;;;5093053;28;20452;-63
2021/04/27 02:31:46;;;;;;;1.10;0.50;;;8.00;59.40;;;;;;5093086;28;20945;-63
2021/04/27 02:34:14;;;;;;;0.75;0.43;;;7.90;59.20;;;;;;5093049;28;20900;-63
2021/04/27 02:36:42;;;;;;;1.08;0.50;;;7.80;59.70;;;;;;5094020;28;20857;-63
2021/04/27 02:39:10;;;;;;;0.90;0.60;;;7.90;61.20;;;;;;5093939;28;20421;-63
2021/04/27 02:41:38;;;;;;;0.90;0.50;;;8.00;60.70;;;;;;5094569;28;20873;-63
2021/04/27 02:44:07;;;;;;;1.00;0.50;;;8.10;59.70;;;;;;5093571;28;20421;-64
2021/04/27 02:46:34;;;;;;;0.80;0.60;;;8.10;60.50;;;;;;5092230;28;20429;-64
2021/04/27 02:49:01;;;;;;;1.90;0.50;;;8.30;60.40;;;;;;5093169;28;20442;-64
2021/04/27 02:51:28;;;;;;;1.50;0.57;;;8.20;59.70;;;;;;5093328;28;20461;-63
2021/04/27 02:53:55;;;;;;;1.00;0.50;;;8.10;60.10;;;;;;5093300;28;20422;-63
2021/04/27 02:56:22;;;;;;;1.00;0.50;;;8.00;60.80;;;;;;5092806;28;20562;-64
2021/04/27 02:58:49;;;;;;;0.70;0.50;;;7.80;61.20;;;;;;5093580;28;20785;-63
2021/04/27 03:01:15;;;;;;;0.80;0.55;;;8.00;62.80;;;;;;5094569;28;20436;-63
2021/04/27 03:03:42;;;;;;;0.90;0.50;;;8.00;62.00;;;;;;5094724;28;20458;-63
2021/04/27 03:06:09;;;;;;;1.80;0.57;;;7.80;60.70;;;;;;5093951;28;20475;-64
2021/04/27 03:08:35;;;;;;;1.20;0.60;;;7.90;62.50;;;;;;5093249;28;20464;-63
2021/04/27 03:11:03;;;;;;;1.20;0.60;;;7.80;61.70;;;;;;5094410;28;20729;-63
2021/04/27 03:13:29;;;;;;;1.30;0.60;;;7.80;62.50;;;;;;5096258;28;20414;-63
2021/04/27 03:15:56;;;;;;;0.88;0.50;;;7.70;62.30;;;;;;5097746;28;20429;-63
2021/04/27 03:18:22;;;;;;;1.80;0.70;;;7.60;63.50;;;;;;5098365;28;20468;-63
2021/04/27 03:20:49;;;;;;;1.00;0.50;;;7.60;63.10;;;;;;5097934;28;20519;-64
2021/04/27 03:23:15;;;;;;;2.63;0.60;;;7.60;63.70;;;;;;5097785;28;20462;-63
2021/04/27 03:25:42;;;;;;;0.80;0.50;;;7.80;64.00;;;;;;5097962;28;20469;-64
2021/04/27 03:28:09;;;;;;;1.25;0.50;;;7.90;64.50;;;;;;5096969;28;20418;-63
2021/04/27 03:30:37;;;;;;;1.60;0.50;;;8.10;64.00;;;;;;5095877;28;20432;-63
2021/04/27 03:33:04;;;;;;;1.30;0.40;;;8.10;62.70;;;;;;5095753;28;20414;-63
2021/04/27 03:35:30;;;;;;;1.40;0.60;;;8.10;63.40;;;;;;5096259;28;20530;-63
2021/04/27 03:37:57;;;;;;;0.73;0.50;;;8.10;63.20;;;;;;5096142;28;20833;-63
2021/04/27 03:40:24;;;;;;;1.00;0.50;;;7.90;63.30;;;;;;5095996;28;20879;-64
2021/04/27 03:42:50;;;;;;;1.00;0.60;;;8.00;64.30;;;;;;5096675;28;20465;-64
2021/04/27 03:45:20;;;;;;;1.10;0.60;;;8.00;64.30;;;;;;5097673;28;20422;-63
2021/04/27 03:47:47;;;;;;;0.90;0.50;;;8.10;64.00;;;;;;5097345;28;20839;-63
2021/04/27 03:50:16;;;;;;;2.30;0.60;;;8.10;64.30;;;;;;5097546;28;20449;-63
2021/04/27 03:52:42;;;;;;;0.80;0.50;;;8.00;64.20;;;;;;5097125;28;20410;-63
2021/04/27 03:55:10;;;;;;;0.80;0.50;;;8.00;64.70;;;;;;5097375;28;20845;-63
2021/04/27 03:57:36;;;;;;;1.10;0.60;;;8.00;65.20;;;;;;5097096;28;20479;-63
2021/04/27 04:00:04;;;;;;;1.10;0.57;;;7.90;65.00;;;;;;5097301;28;20876;-63
2021/04/27 04:02:32;;;;;;;0.90;0.60;;;7.90;65.00;;;;;;5096777;28;20485;-64
2021/04/27 04:04:58;;;;;;;1.10;0.50;;;7.70;65.60;;;;;;5097091;28;20414;-63
2021/04/27 04:07:25;;;;;;;0.82;0.50;;;7.50;65.70;;;;;;5097050;28;20453;-63
2021/04/27 04:09:51;;;;;;;1.30;0.60;;;7.20;66.90;;;;;;5096498;28;20417;-64
2021/04/27 04:12:18;;;;;;;2.10;0.50;;;7.20;68.40;;;;;;5097276;28;20472;-61
2021/04/27 04:14:44;;;;;;;0.90;0.60;;;7.20;69.40;;;;;;5097094;28;20437;-62
2021/04/27 04:17:11;;;;;;;1.95;0.60;;;7.20;69.90;;;;;;5097095;28;20426;-63
2021/04/27 04:19:39;;;;;;;1.10;0.60;;;7.40;69.60;;;;;;5097048;28;20417;-63
2021/04/27 04:22:06;;;;;;;1.00;0.60;;;7.40;69.20;;;;;;5096242;28;20729;-62
2021/04/27 04:24:33;;;;;;;0.80;0.50;;;7.40;68.70;;;;;;5093137;28;20513;-63
2021/04/27 04:27:00;;;;;;;1.10;0.50;;;7.20;69.40;;;;;;5096080;28;20575;-63
2021/04/27 04:29:26;;;;;;;0.82;0.50;;;7.40;70.30;;;;;;5096234;28;20422;-62
2021/04/27 04:31:53;;;;;;;1.27;0.60;;;7.50;70.70;;;;;;5094017;28;20470;-63
2021/04/27 04:34:20;;;;;;;1.80;0.60;;;7.60;70.10;;;;;;5095864;28;20464;-63
2021/04/27 04:36:48;;;;;;;0.90;0.60;;;7.50;69.60;;;;;;5096858;28;20466;-64
2021/04/27 04:39:14;;;;;;;0.90;0.60;;;7.40;71.30;;;;;;5096053;28;20484;-64
2021/04/27 04:41:41;;;;;;;0.93;0.60;;;7.40;70.80;;;;;;5096358;28;20479;-64
2021/04/27 04:44:09;;;;;;;1.20;0.60;;;7.40;70.30;;;;;;5095148;28;20524;-63
2021/04/27 04:46:36;;;;;;;0.88;0.50;;;7.40;70.90;;;;;;5095057;28;20892;-62
2021/04/27 04:49:02;;;;;;;1.10;0.60;;;7.60;71.60;;;;;;5094522;28;20453;-62
2021/04/27 04:51:29;;;;;;;1.40;0.60;;;7.50;70.20;;;;;;5095059;28;20433;-63
2021/04/27 04:53:57;;;;;;;1.67;0.60;;;7.50;71.40;;;;;;5094313;28;20417;-63
2021/04/27 04:56:23;;;;;;;0.95;0.70;;;7.40;70.90;;;;;;5095573;28;20477;-63
2021/04/27 04:58:49;;;;;;;1.10;0.60;;;7.30;71.80;;;;;;5095606;28;20504;-63
2021/04/27 05:01:16;;;;;;;1.50;0.70;;;7.30;71.80;;;;;;5095411;28;20789;-63
2021/04/27 05:03:43;;;;;;;0.95;0.60;;;7.20;72.50;;;;;;5094991;28;20509;-63
2021/04/27 05:06:15;;;;;;;1.60;0.60;;;7.40;73.90;;;;;;5095614;28;20455;-64
2021/04/27 05:08:44;;;;;;;0.90;0.50;;;7.40;73.50;;;;;;5095947;28;20421;-63
2021/04/27 05:11:12;;;;;;;1.83;0.70;;;7.50;76.50;;;;;;5094024;28;20438;-64
2021/04/27 05:13:39;;;;;;;1.00;0.50;;;7.50;74.00;;;;;;5095387;28;20506;-63
2021/04/27 05:16:09;;;;;;;0.90;0.60;;;7.40;73.80;;;;;;5095276;28;20525;-63
2021/04/27 05:18:36;;;;;;;1.20;0.60;;;7.40;77.70;;;;;;5095003;28;20422;-63
2021/04/27 05:21:03;;;;;;;1.60;0.70;;;7.40;74.30;;;;;;5095265;28;20861;-63
2021/04/27 05:23:30;;;;;;;1.20;0.50;;;7.50;75.20;;;;;;5095385;28;20525;-63
2021/04/27 05:25:57;;;;;;;1.80;0.60;;;7.60;79.10;;;;;;5095109;28;20518;-62
2021/04/27 05:28:24;;;;;;;0.90;0.60;;;7.80;76.30;;;;;;5095444;28;20842;-63
2021/04/27 05:30:51;;;;;;;0.90;0.52;;;8.10;79.30;;;;;;5095233;28;20770;-64
2021/04/27 05:33:18;;;;;;;1.08;0.70;;;8.20;79.30;;;;;;5090643;28;20455;-63
2021/04/27 05:35:45;;;;;;;1.40;0.70;;;8.00;73.10;;;;;;5085889;28;20467;-59
2021/04/27 05:38:11;;;;;;;1.60;0.70;;;7.80;74.10;;;;;;5073252;28;20510;-61
2021/04/27 05:40:38;;;;;;;1.10;0.60;;;7.60;74.30;;;;;;5081889;28;20470;-60
2021/04/27 05:43:05;;;;;;;1.23;0.80;;;7.50;76.50;;;;;;5086237;28;20465;-61
2021/04/27 05:45:33;;;;;;;1.50;0.70;;;7.30;76.40;;;;;;5091349;28;20448;-61
2021/04/27 05:47:59;;;;;;;1.00;0.60;;;7.50;78.80;;;;;;5092032;28;20500;-60
2021/04/27 05:50:26;;;;;;;1.20;0.70;;;7.70;77.80;;;;;;5091368;28;20747;-60
2021/04/27 05:52:52;;;;;;;1.80;0.80;;;7.80;80.30;;;;;;5091210;28;21094;-61
2021/04/27 05:55:19;;;;;;;1.30;0.65;;;8.00;76.60;;;;;;5076296;28;20568;-61
2021/04/27 05:57:46;;;;;;;1.70;0.80;;;8.10;78.10;;;;;;5086498;28;20562;-61
2021/04/27 06:00:14;;;;;;;1.08;0.70;;;8.00;75.90;;;;;;5078430;28;20790;-61
2021/04/27 06:02:41;;;;;;;1.27;0.60;;;8.00;78.10;;;;;;5087149;28;20433;-61
2021/04/27 06:05:08;;;;;;;1.57;0.80;;;8.00;78.70;;;;;;5092975;28;20909;-60
2021/04/27 06:07:36;;;;;;;1.60;0.80;;;8.00;77.30;;;;;;5092675;28;20421;-60
2021/04/27 06:10:03;;;;;;;1.50;0.68;;;8.10;78.30;;;;;;5093696;28;20418;-60
2021/04/27 06:12:29;;;;;;;1.23;0.70;;;8.20;77.30;;;;;;5092568;28;20410;-60
2021/04/27 06:14:55;;;;;;;1.10;0.70;;;8.30;76.20;;;;;;5093395;28;20449;-61
2021/04/27 06:17:22;;;;;;;1.83;0.80;;;8.40;75.80;;;;;;5093532;28;20520;-60
2021/04/27 06:19:49;;;;;;;5.43;0.77;;;8.50;75.40;;;;;;5093156;28;20453;-60
2021/04/27 06:22:16;;;;;;;1.60;0.70;;;8.50;75.30;;;;;;5093753;28;20457;-60
2021/04/27 06:24:43;;;;;;;1.10;0.80;;;8.40;75.50;;;;;;5092928;28;20558;-60
2021/04/27 06:27:10;;;;;;;1.15;0.70;;;8.50;74.80;;;;;;5092898;28;20421;-60
2021/04/27 06:29:37;;;;;;;1.50;0.70;;;8.60;74.60;;;;;;5092715;28;20664;-61
2021/04/27 06:32:05;;;;;;;1.30;0.70;;;8.60;75.80;;;;;;5091683;28;20425;-60
2021/04/27 06:34:31;;;;;;;1.20;0.80;;;8.80;75.90;;;;;;5091112;28;20421;-61
2021/04/27 06:36:59;;;;;;;1.10;0.70;;;9.00;75.30;;;;;;5091171;28;20433;-60
2021/04/27 06:39:25;;;;;;;2.10;0.80;;;9.10;75.10;;;;;;5089887;28;20712;-61
2021/04/27 06:41:51;;;;;;;2.90;0.70;;;9.00;73.90;;;;;;5090520;28;20425;-61
2021/04/27 06:44:18;;;;;;;1.60;0.70;;;8.90;74.40;;;;;;5087958;28;20512;-61
2021/04/27 06:46:44;;;;;;;3.80;0.90;;;8.80;75.10;;;;;;5091290;28;20421;-61
2021/04/27 06:49:11;;;;;;;2.40;0.90;;;8.70;74.40;;;;;;5083584;28;20518;-61
2021/04/27 06:51:37;;;;;;;1.60;0.80;;;8.80;74.90;;;;;;5088805;28;20449;-61
2021/04/27 06:54:05;;;;;;;3.20;0.90;;;8.60;74.80;;;;;;5090570;28;20406;-61
2021/04/27 06:56:31;;;;;;;1.70;0.80;;;8.60;75.40;;;;;;5091832;28;20418;-61
2021/04/27 06:58:58;;;;;;;1.13;0.80;;;8.60;75.90;;;;;;5092237;28;20449;-62
2021/04/27 07:01:24;;;;;;;2.03;0.90;;;8.80;77.80;;;;;;5081635;28;20462;-63
2021/04/27 07:03:50;;;;;;;2.50;0.85;;;8.90;75.60;;;;;;5093863;28;20820;-62
2021/04/27 07:06:17;;;;;;;1.27;0.93;;;9.00;75.00;;;;;;5094125;28;20564;-63
2021/04/27 07:08:47;;;;;;;2.10;0.70;;;9.00;76.00;;;;;;5078087;28;20428;-63
2021/04/27 07:11:14;;;;;;;1.30;0.80;;;9.20;77.50;;;;;;5076584;28;20431;-62
2021/04/27 07:13:41;;;;;;;2.00;1.00;;;9.30;76.70;;;;;;5083902;28;20453;-63
2021/04/27 07:16:07;;;;;;;1.10;0.80;;;9.30;74.40;;;;;;5096644;28;20473;-63
2021/04/27 07:18:34;;;;;;;1.27;0.80;;;9.40;74.10;;;;;;5078244;28;20858;-63
2021/04/27 07:21:01;;;;;;;2.00;0.90;;;9.30;75.10;;;;;;5074281;28;20524;-63
2021/04/27 07:23:29;;;;;;;1.35;0.90;;;9.40;74.80;;;;;;5074738;28;20485;-62
2021/04/27 07:25:55;;;;;;;1.20;0.80;;;9.60;76.20;;;;;;5086671;28;20430;-61
2021/04/27 07:28:22;;;;;;;1.90;0.82;;;9.90;77.10;;;;;;5095672;28;20418;-62
2021/04/27 07:30:49;;;;;;;2.60;0.80;;;10.00;72.80;;;;;;5096453;28;20816;-63
2021/04/27 07:33:15;;;;;;;1.70;0.93;;;10.00;72.70;;;;;;5093405;28;20431;-63
2021/04/27 07:35:42;;;;;;;4.88;0.98;;;10.00;72.70;;;;;;5085921;28;20430;-63
2021/04/27 07:38:09;;;;;;;1.50;1.00;;;10.20;73.80;;;;;;5091296;28;20752;-63
2021/04/27 07:40:36;;;;;;;1.67;0.80;;;10.40;72.50;;;;;;5092325;28;21117;-64
2021/04/27 07:43:04;;;;;;;2.33;0.88;;;10.40;70.70;;;;;;5082683;28;20436;-64
2021/04/27 07:45:33;;;;;;;3.83;0.90;;;10.20;72.30;;;;;;5094546;28;20483;-63
2021/04/27 07:48:01;;;;;;;1.42;0.80;;;10.30;73.20;;;;;;5093575;28;20422;-65
2021/04/27 07:50:32;;;;;;;1.95;0.90;;;10.40;72.80;;;;;;5095227;28;20543;-66
2021/04/27 07:52:59;;;;;;;2.53;0.90;;;10.40;72.80;;;;;;5095704;28;20418;-64
2021/04/27 07:55:25;;;;;;;2.40;0.80;;;10.40;70.70;;;;;;5095257;28;20433;-63
2021/04/27 07:57:53;;;;;;;2.15;0.80;;;10.60;74.40;;;;;;5094331;28;20422;-64
2021/04/27 08:00:21;;;;;;;1.40;0.80;;;10.60;71.00;;;;;;5090196;28;20437;-65
2021/04/27 08:02:49;;;;;;;2.67;0.90;;;10.80;74.10;;;;;;5083990;28;20469;-64
2021/04/27 08:05:17;;;;;;;3.70;0.70;;;10.90;71.00;;;;;;5085876;28;20445;-64
2021/04/27 08:07:43;;;;;;;2.60;0.90;;;11.00;73.60;;;;;;5093968;28;20418;-63
2021/04/27 08:10:13;;;;;;;1.40;0.90;;;11.30;71.50;;;;;;5078205;28;20427;-64
2021/04/27 08:12:41;;;;;;;2.67;0.90;;;11.60;71.60;;;;;;5091261;28;20885;-64
2021/04/27 08:15:09;;;;;;;3.50;0.80;;;11.70;70.60;;;;;;5094840;28;20422;-64
2021/04/27 08:17:35;;;;;;;2.90;1.00;;;11.90;71.40;;;;;;5094282;28;20422;-64
2021/04/27 08:20:05;;;;;;;1.70;0.93;;;12.10;70.00;;;;;;5092897;28;20457;-65
2021/04/27 08:22:31;;;;;;;4.32;0.95;;;12.20;69.30;;;;;;5086418;28;20431;-64
2021/04/27 08:24:58;;;;;;;1.40;0.98;;;12.20;69.20;;;;;;5086209;28;20505;-62
2021/04/27 08:27:28;;;;;;;1.60;1.00;;;12.30;68.00;;;;;;5074454;28;20455;-64
2021/04/27 08:29:56;;;;;;;2.10;1.00;;;12.30;67.60;;;;;;5090682;28;20449;-63
2021/04/27 08:32:23;;;;;;;1.50;1.00;;;12.00;68.00;;;;;;5090125;28;20510;-64
2021/04/27 08:34:49;;;;;;;2.20;0.95;;;12.10;67.50;;;;;;5091777;28;20449;-64
2021/04/27 08:37:16;;;;;;;2.15;1.00;;;11.90;67.60;;;;;;5086605;28;20542;-63
2021/04/27 08:39:43;;;;;;;1.90;1.20;;;12.00;68.90;;;;;;5076526;28;20457;-63
2021/04/27 08:42:11;;;;;;;3.28;0.90;;;12.10;68.50;;;;;;5088904;28;20856;-64
2021/04/27 08:44:39;;;;;;;3.08;1.10;;;11.70;68.30;;;;;;5091759;28;20890;-65
2021/04/27 08:47:06;;;;;;;2.40;0.93;;;11.90;69.30;;;;;;5089799;28;20454;-64
2021/04/27 08:49:33;;;;;;;3.33;1.00;;;12.10;68.20;;;;;;5083107;28;20441;-64
2021/04/27 08:51:59;;;;;;;2.53;1.20;;;12.40;69.10;;;;;;5086642;28;20449;-64
2021/04/27 08:54:27;;;;;;;2.67;1.10;;;12.60;66.70;;;;;;5087218;28;20420;-64
2021/04/27 08:56:59;;;;;;;1.50;0.90;;;12.60;65.50;;;;;;5088813;28;20804;-65
2021/04/27 08:59:25;;;;;;;3.00;1.30;;;12.70;66.80;;;;;;5089084;28;20884;-66
2021/04/27 09:01:52;;;;;;;2.88;1.10;;;12.90;66.80;;;;;;5090307;28;21212;-63
2021/04/27 09:04:44;;;;;;;2.70;1.20;;;13.20;66.80;;;;;;5088338;28;20458;-63
2021/04/27 09:07:16;;;;;;;1.98;1.13;;;13.50;65.30;;;;;;5085974;28;20476;-64
2021/04/27 09:09:47;;;;;;;2.53;1.05;;;13.50;64.00;;;;;;5085607;28;20500;-65
2021/04/27 09:12:24;;;;;;;1.60;1.00;;;13.50;62.90;;;;;;5081798;28;20881;-65
2021/04/27 09:14:52;;;;;;;2.67;1.00;;;13.60;63.30;;;;;;5082754;28;20512;-63
2021/04/27 09:17:19;;;;;;;2.63;1.25;;;13.90;64.40;;;;;;5084912;28;20437;-64
2021/04/27 09:19:49;;;;;;;2.50;1.10;;;13.90;61.40;;;;;;5090747;28;20750;-63
2021/04/27 09:22:18;;;;;;;2.17;1.37;;;13.80;61.70;;;;;;5085722;28;20441;-63
2021/04/27 09:24:49;;;;;;;3.30;1.00;;;13.70;63.10;;;;;;5091193;28;20748;-63
2021/04/27 09:27:26;;;;;;;2.38;1.30;;;14.00;63.10;;;;;;5093946;28;20434;-63
2021/04/27 09:29:53;;;;;;;1.90;1.10;;;14.10;62.40;;;;;;5092282;28;20991;-63
2021/04/27 09:32:32;;;;;;;2.83;1.10;;;14.40;61.30;;;;;;5093428;28;20856;-63
2021/04/27 09:34:58;;;;;;;1.70;1.20;;;14.50;60.50;;;;;;5086826;28;20491;-63
2021/04/27 09:37:25;;;;;;;2.60;1.05;;;14.40;60.30;;;;;;5091590;28;20861;-63
2021/04/27 09:39:54;;;;;;;1.80;1.30;;;14.30;60.90;;;;;;5093050;28;20466;-63
2021/04/27 09:42:23;;;;;;;1.73;1.00;;;14.40;61.10;;;;;;5091945;28;20461;-63
2021/04/27 09:45:01;;;;;;;2.10;1.10;;;14.70;62.10;;;;;;5092249;28;20500;-63
2021/04/27 09:47:30;;;;;;;2.85;1.10;;;14.90;60.70;;;;;;5093596;28;20852;-63
2021/04/27 09:50:04;;;;;;;1.48;1.10;;;15.10;60.60;;;;;;5080328;28;20432;-63
2021/04/27 09:52:41;;;;;;;1.60;1.10;;;15.30;60.00;;;;;;5080132;28;20449;-63
2021/04/27 09:55:20;;;;;;;2.22;1.33;;;15.40;59.70;;;;;;5084532;28;20469;-63
2021/04/27 09:57:50;;;;;;;2.30;1.20;;;15.20;59.30;;;;;;5087540;28;20425;-63
2021/04/27 10:00:21;;;;;;;3.13;1.40;;;15.30;59.70;;;;;;5085520;28;20449;-63
2021/04/27 10:02:48;;;;;;;2.55;1.23;;;15.10;58.70;;;;;;5079469;28;20464;-63
2021/04/27 10:05:15;;;;;;;3.00;1.40;;;15.30;59.80;;;;;;5083539;28;20573;-63
2021/04/27 10:07:41;;;;;;;2.47;1.30;;;15.60;59.10;;;;;;5086373;28;20476;-63
2021/04/27 10:10:12;;;;;;;3.17;1.40;;;15.90;59.00;;;;;;5085091;28;20432;-63
2021/04/27 10:12:39;;;;;;;1.90;1.30;;;16.00;57.80;;;;;;5082280;28;20447;-63
2021/04/27 10:15:07;;;;;;;1.90;1.33;;;16.00;57.70;;;;;;5090404;28;20457;-63
2021/04/27 10:17:35;;;;;;;2.88;1.40;;;15.90;58.90;;;;;;5088883;28;20488;-63
2021/04/27 10:22:46;;;;;;;1.90;1.10;;;16.80;56.90;;;;;;5075571;28;20416;-62
2021/04/27 10:28:04;;;;;;;3.00;1.30;;;17.60;56.10;;;;;;5064139;28;20411;-62
2021/04/27 10:30:38;;;;;;;2.22;1.20;;;17.70;55.80;;;;;;5093082;28;20421;-62
2021/04/27 10:33:14;;;;;;;3.55;1.38;;;17.90;55.20;;;;;;5089634;28;20472;-62
2021/04/27 10:35:42;;;;;;;3.70;1.55;;;17.50;54.50;;;;;;5082806;28;20496;-62
2021/04/27 10:38:10;;;;;;;2.50;1.55;;;17.60;54.70;;;;;;5083730;28;20433;-63
2021/04/27 10:41:00;;;;;;;5.15;1.58;;;17.70;54.60;;;;;;5089174;28;20492;-62
2021/04/27 10:43:54;;;;;;;2.53;1.40;;;18.20;54.80;;;;;;5088844;28;20829;-62
2021/04/27 10:46:46;;;;;;;2.60;1.30;;;18.30;54.20;;;;;;5082708;28;20885;-62
2021/04/27 10:49:20;;;;;;;6.18;1.63;;;18.50;53.30;;;;;;5084862;28;20480;-62
2021/04/27 10:51:47;;;;;;;2.53;1.60;;;18.50;52.90;;;;;;5086523;28;20482;-63
2021/04/27 10:54:20;;;;;;;5.10;1.67;;;18.40;53.70;;;;;;5091734;28;20425;-61
2021/04/27 10:56:49;;;;;;;3.03;1.40;;;18.60;53.30;;;;;;5088947;28;20456;-62
2021/04/27 10:59:17;;;;;;;2.40;1.40;;;19.00;53.40;;;;;;5091253;28;20422;-62
2021/04/27 11:01:45;;;;;;;2.33;1.65;;;18.90;52.10;;;;;;5088832;28;20432;-62
2021/04/27 11:04:29;;;;;;;2.70;1.70;;;18.90;51.80;;;;;;5083780;28;20426;-61
2021/04/27 11:07:34;;;;;;;2.40;1.38;;;18.60;52.10;;;;;;5091082;28;20422;-61
2021/04/27 11:10:23;;;;;;;5.10;2.00;;;18.50;51.50;;;;;;5082959;28;20426;-61
2021/04/27 11:13:03;;;;;;;3.27;1.60;;;18.60;52.10;;;;;;5086408;28;20425;-59
2021/04/27 11:15:31;;;;;;;2.03;1.38;;;19.10;51.90;;;;;;5087922;28;20433;-59
2021/04/27 11:18:03;;;;;;;4.20;1.30;;;19.60;50.80;;;;;;5084455;28;20858;-59
2021/04/27 11:20:50;;;;;;;2.72;1.48;;;20.00;50.40;;;;;;5077033;28;20420;-59
2021/04/27 11:23:56;;;;;;;2.80;1.20;;;20.40;49.70;;;;;;5074073;28;20605;-60
2021/04/27 11:26:53;;;;;;;6.45;1.85;;;20.60;49.40;;;;;;5090020;28;20425;-59
2021/04/27 11:29:23;;;;;;;4.95;2.30;;;20.90;49.10;;;;;;5091110;28;20513;-60
2021/04/27 11:32:16;;;;;;;2.60;1.50;;;20.10;48.40;;;;;;5086289;28;20901;-60
2021/04/27 11:35:09;;;;;;;2.70;1.40;;;20.10;48.40;;;;;;5010486;28;20460;-60
2021/04/27 11:37:38;;;;;;;2.90;1.20;;;20.50;47.80;;;;;;5030116;28;20439;-60
2021/04/27 11:40:20;;;;;;;1.80;1.30;;;20.50;47.60;;;;;;5082248;28;20423;-60
2021/04/27 11:42:52;;;;;;;2.20;1.60;;;20.90;46.60;;;;;;5085866;28;20431;-60
2021/04/27 11:45:20;;;;;;;3.20;1.40;;;20.90;45.70;;;;;;5096457;28;20418;-61
2021/04/27 11:47:47;;;;;;;3.10;1.60;;;19.70;46.30;;;;;;5094491;28;20548;-61
2021/04/27 11:50:15;;;;;;;2.35;1.50;;;19.50;46.50;;;;;;5093651;28;20428;-62
2021/04/27 11:52:49;;;;;;;3.70;1.60;;;19.40;47.50;;;;;;5094349;28;20458;-61
2021/04/27 11:55:29;;;;;;;2.80;1.50;;;19.70;48.20;;;;;;5092714;28;20478;-60
2021/04/27 11:57:58;;;;;;;2.63;1.60;;;20.00;47.10;;;;;;5092694;28;20712;-61
2021/04/27 12:00:32;;;;;;;5.05;1.70;;;20.00;45.70;;;;;;5091140;28;20417;-61
2021/04/27 12:02:58;;;;;;;3.97;1.40;;;20.20;46.50;;;;;;5092853;28;20841;-61
2021/04/27 12:05:25;;;;;;;3.30;1.57;;;20.60;45.80;;;;;;5094704;28;20457;-61
2021/04/27 12:07:52;;;;;;;2.85;1.40;;;21.20;45.80;;;;;;5093217;28;20785;-61
2021/04/27 12:10:18;;;;;;;4.70;1.50;;;21.60;44.20;;;;;;5092790;28;20523;-61
2021/04/27 12:12:46;;;;;;;2.92;1.40;;;21.60;43.60;;;;;;5094712;28;20478;-61
2021/04/27 12:15:23;;;;;;;2.10;1.40;;;21.10;44.00;;;;;;5085960;28;20428;-62
2021/04/27 12:20:52;;;;;;;5.87;1.60;;;20.90;43.50;;;;;;5066824;28;20848;-61
2021/04/27 12:23:23;;;;;;;7.10;1.65;;;20.80;43.50;;;;;;5092646;28;20889;-62
2021/04/27 12:25:50;;;;;;;2.22;1.33;;;20.90;43.50;;;;;;5080397;28;20734;-63
2021/04/27 12:28:17;;;;;;;2.57;1.60;;;21.10;43.40;;;;;;5083699;28;20442;-61
2021/04/27 12:30:46;;;;;;;4.25;1.60;;;21.50;42.70;;;;;;5090387;28;20453;-62
2021/04/27 12:33:53;;;;;;;3.00;1.40;;;21.50;42.20;;;;;;5076872;28;20424;-60
2021/04/27 12:36:32;;;;;;;2.60;1.30;;;21.50;42.70;;;;;;5081357;28;20731;-59
2021/04/27 12:38:59;;;;;;;3.40;1.67;;;22.00;42.60;;;;;;5091025;28;20871;-60
2021/04/27 12:41:36;;;;;;;1.90;1.67;;;22.20;42.00;;;;;;5093566;28;20933;-60
2021/04/27 12:44:28;;;;;;;2.33;1.40;;;21.60;41.50;;;;;;5092068;28;20440;-60
2021/04/27 12:46:55;;;;;;;2.53;1.40;;;21.30;42.20;;;;;;5091043;28;20429;-61
2021/04/27 12:49:27;;;;;;;2.50;1.30;;;21.60;42.10;;;;;;5089422;28;20801;-61
2021/04/27 12:52:00;;;;;;;2.50;1.42;;;21.90;41.80;;;;;;5094337;28;20479;-60
2021/04/27 12:54:28;;;;;;;3.47;1.40;;;22.10;41.90;;;;;;5084911;28;20494;-61
2021/04/27 12:57:06;;;;;;;3.38;1.25;;;22.20;40.80;;;;;;5073266;28;20443;-61
2021/04/27 12:59:33;;;;;;;2.10;1.20;;;21.20;41.10;;;;;;5074686;28;20467;-60
2021/04/27 13:02:00;;;;;;;3.15;1.35;;;21.50;41.80;;;;;;5090288;28;20568;-61
2021/04/27 13:04:31;;;;;;;2.30;1.30;;;21.50;41.20;;;;;;5089292;28;20824;-61
2021/04/27 13:06:58;;;;;;;2.20;1.40;;;21.30;40.80;;;;;;5091252;28;20845;-61
2021/04/27 13:09:34;;;;;;;2.00;1.27;;;21.10;41.10;;;;;;5092961;28;20430;-60
2021/04/27 13:12:02;;;;;;;2.35;1.10;;;21.40;41.60;;;;;;5093015;28;20413;-59